AXM602 WSSS-WBKK
Flight info
| Callsign | AXM602 |
|---|---|
| Flight time | N/A |
| Altitude | 35000 |
| Route | TOMAN5B TOMAN M646 DULIM DULIM2A |
| Aircraft | A20N/M-SDE2E3FGHIRWXY/LB1 |
Departure
| Time | N/A |
|---|---|
| Airport | Singapore Changi Airport (WSSS) |
Arrival
| Time | 2026-05-07 14:39 |
|---|---|
| Airport | Kota Kinabalu International Airport (WBKK) |
| Time | Latitude | Longitude | Altitude | Speed | Heading |
|---|---|---|---|---|---|
| 2026-05-07 14:05 | 4.51624 | 113.93397 | 34858 ft | 458 kts | 72° |
| 2026-05-07 14:06 | 4.53645 | 113.99491 | 34847 ft | 463 kts | 70° |
| 2026-05-07 14:06 | 4.55895 | 114.05545 | 34848 ft | 463 kts | 69° |
| 2026-05-07 14:07 | 4.58218 | 114.11561 | 34855 ft | 463 kts | 69° |
| 2026-05-07 14:07 | 4.60522 | 114.17600 | 34862 ft | 464 kts | 69° |
| 2026-05-07 14:08 | 4.62816 | 114.23642 | 34864 ft | 464 kts | 69° |
| 2026-05-07 14:08 | 4.65101 | 114.29651 | 34863 ft | 464 kts | 69° |
| 2026-05-07 14:09 | 4.67405 | 114.35708 | 34868 ft | 465 kts | 69° |
| 2026-05-07 14:09 | 4.69707 | 114.41761 | 34873 ft | 465 kts | 69° |
| 2026-05-07 14:10 | 4.72010 | 114.47820 | 34875 ft | 465 kts | 69° |
| 2026-05-07 14:10 | 4.74313 | 114.53880 | 34875 ft | 465 kts | 69° |
| 2026-05-07 14:11 | 4.76614 | 114.59936 | 34865 ft | 464 kts | 69° |
| 2026-05-07 14:11 | 4.78905 | 114.65967 | 34739 ft | 463 kts | 69° |
| 2026-05-07 14:11 | 4.80052 | 114.68988 | 34513 ft | 463 kts | 69° |
| 2026-05-07 14:12 | 4.81199 | 114.72009 | 34287 ft | 464 kts | 69° |
| 2026-05-07 14:12 | 4.82346 | 114.75031 | 34065 ft | 464 kts | 69° |
| 2026-05-07 14:12 | 4.83496 | 114.78060 | 33838 ft | 465 kts | 69° |
| 2026-05-07 14:12 | 4.84644 | 114.81086 | 33585 ft | 464 kts | 69° |
| 2026-05-07 14:13 | 4.85795 | 114.84109 | 33330 ft | 464 kts | 68° |
| 2026-05-07 14:13 | 4.87155 | 114.87040 | 33074 ft | 464 kts | 61° |
| 2026-05-07 14:13 | 4.88844 | 114.89802 | 32833 ft | 465 kts | 55° |
| 2026-05-07 14:13 | 4.90829 | 114.92355 | 32590 ft | 465 kts | 49° |
| 2026-05-07 14:14 | 4.92986 | 114.94772 | 32342 ft | 465 kts | 49° |
| 2026-05-07 14:14 | 4.95134 | 114.97193 | 32102 ft | 465 kts | 49° |
| 2026-05-07 14:14 | 4.97279 | 114.99622 | 31864 ft | 465 kts | 49° |
| 2026-05-07 14:14 | 4.99426 | 115.02053 | 31431 ft | 466 kts | 49° |
| 2026-05-07 14:15 | 5.01582 | 115.04492 | 30703 ft | 469 kts | 49° |
| 2026-05-07 14:15 | 5.03755 | 115.06952 | 29945 ft | 471 kts | 49° |
| 2026-05-07 14:15 | 5.05919 | 115.09400 | 29274 ft | 467 kts | 49° |
| 2026-05-07 14:15 | 5.08067 | 115.11830 | 28626 ft | 462 kts | 49° |
| 2026-05-07 14:16 | 5.10186 | 115.14228 | 27984 ft | 458 kts | 49° |
| 2026-05-07 14:16 | 5.12294 | 115.16613 | 27341 ft | 454 kts | 49° |
| 2026-05-07 14:16 | 5.14381 | 115.18975 | 26712 ft | 451 kts | 49° |
| 2026-05-07 14:16 | 5.16453 | 115.21320 | 26074 ft | 447 kts | 49° |
| 2026-05-07 14:17 | 5.18514 | 115.23653 | 25430 ft | 445 kts | 49° |
| 2026-05-07 14:17 | 5.20540 | 115.25946 | 25203 ft | 431 kts | 49° |
| 2026-05-07 14:17 | 5.22493 | 115.28158 | 25103 ft | 417 kts | 49° |
| 2026-05-07 14:17 | 5.24420 | 115.30340 | 25014 ft | 422 kts | 49° |
| 2026-05-07 14:18 | 5.26377 | 115.32558 | 24920 ft | 425 kts | 49° |
| 2026-05-07 14:18 | 5.28330 | 115.34770 | 24857 ft | 422 kts | 49° |
| 2026-05-07 14:18 | 5.30275 | 115.36972 | 24853 ft | 422 kts | 49° |
| 2026-05-07 14:18 | 5.32223 | 115.39177 | 24829 ft | 421 kts | 49° |
| 2026-05-07 14:19 | 5.34139 | 115.41348 | 24512 ft | 421 kts | 49° |
| 2026-05-07 14:19 | 5.36087 | 115.43554 | 23880 ft | 424 kts | 49° |
| 2026-05-07 14:19 | 5.38029 | 115.45756 | 23600 ft | 415 kts | 49° |
| 2026-05-07 14:19 | 5.39918 | 115.47896 | 23473 ft | 406 kts | 49° |
| 2026-05-07 14:20 | 5.41801 | 115.50030 | 23361 ft | 411 kts | 49° |
| 2026-05-07 14:20 | 5.43701 | 115.52182 | 23206 ft | 412 kts | 48° |
| 2026-05-07 14:20 | 5.45744 | 115.54186 | 23096 ft | 410 kts | 41° |
| 2026-05-07 14:20 | 5.47987 | 115.55943 | 22984 ft | 409 kts | 37° |
| 2026-05-07 14:21 | 5.50254 | 115.57656 | 22870 ft | 408 kts | 37° |
| 2026-05-07 14:21 | 5.52516 | 115.59377 | 22836 ft | 407 kts | 38° |
| 2026-05-07 14:21 | 5.54775 | 115.61098 | 22793 ft | 407 kts | 38° |
| 2026-05-07 14:21 | 5.57027 | 115.62815 | 22390 ft | 407 kts | 38° |
| 2026-05-07 14:22 | 5.59289 | 115.64539 | 21667 ft | 410 kts | 38° |
| 2026-05-07 14:22 | 5.61582 | 115.66286 | 20745 ft | 416 kts | 38° |
| 2026-05-07 14:22 | 5.63888 | 115.68043 | 20071 ft | 415 kts | 38° |
| 2026-05-07 14:22 | 5.66180 | 115.69789 | 19509 ft | 411 kts | 38° |
| 2026-05-07 14:23 | 5.68444 | 115.71514 | 18946 ft | 406 kts | 38° |
| 2026-05-07 14:23 | 5.69930 | 115.72646 | 18570 ft | 404 kts | 38° |
| 2026-05-07 14:23 | 5.72158 | 115.74341 | 17997 ft | 400 kts | 37° |
| 2026-05-07 14:23 | 5.75277 | 115.76367 | 17042 ft | 399 kts | 32° |
| 2026-05-07 14:24 | 5.76841 | 115.77327 | 16552 ft | 398 kts | 32° |
| 2026-05-07 14:24 | 5.79197 | 115.78779 | 15831 ft | 397 kts | 33° |
| 2026-05-07 14:24 | 5.81550 | 115.80231 | 15125 ft | 396 kts | 33° |
| 2026-05-07 14:24 | 5.83880 | 115.81670 | 14426 ft | 390 kts | 32° |
| 2026-05-07 14:25 | 5.86167 | 115.83083 | 13749 ft | 382 kts | 32° |
| 2026-05-07 14:25 | 5.89110 | 115.84901 | 13014 ft | 367 kts | 32° |
| 2026-05-07 14:25 | 5.91249 | 115.86222 | 12515 ft | 355 kts | 32° |
| 2026-05-07 14:25 | 5.92658 | 115.87093 | 12145 ft | 349 kts | 32° |
| 2026-05-07 14:26 | 5.94716 | 115.88365 | 11435 ft | 346 kts | 32° |
| 2026-05-07 14:26 | 5.96762 | 115.89630 | 10740 ft | 344 kts | 32° |
| 2026-05-07 14:26 | 5.98761 | 115.90865 | 10495 ft | 335 kts | 32° |
| 2026-05-07 14:26 | 6.00781 | 115.92114 | 10348 ft | 341 kts | 32° |
| 2026-05-07 14:27 | 6.02764 | 115.93340 | 10205 ft | 329 kts | 32° |
| 2026-05-07 14:27 | 6.04647 | 115.94502 | 10092 ft | 313 kts | 32° |
| 2026-05-07 14:27 | 6.06438 | 115.95608 | 10040 ft | 291 kts | 32° |
| 2026-05-07 14:27 | 6.08157 | 115.96670 | 10042 ft | 292 kts | 33° |
| 2026-05-07 14:28 | 6.09889 | 115.97741 | 10017 ft | 292 kts | 33° |
| 2026-05-07 14:28 | 6.11612 | 115.98808 | 9825 ft | 289 kts | 33° |
| 2026-05-07 14:28 | 6.13323 | 115.99867 | 9439 ft | 290 kts | 33° |
| 2026-05-07 14:28 | 6.15024 | 116.00953 | 8905 ft | 287 kts | 40° |
| 2026-05-07 14:29 | 6.16273 | 116.02463 | 8393 ft | 281 kts | 65° |
| 2026-05-07 14:29 | 6.16720 | 116.04363 | 7888 ft | 282 kts | 91° |
| 2026-05-07 14:29 | 6.16314 | 116.06271 | 7394 ft | 280 kts | 111° |
| 2026-05-07 14:29 | 6.15495 | 116.08063 | 6893 ft | 278 kts | 116° |
| 2026-05-07 14:30 | 6.14642 | 116.09770 | 6417 ft | 277 kts | 116° |
| 2026-05-07 14:30 | 6.13553 | 116.11350 | 5829 ft | 278 kts | 137° |
| 2026-05-07 14:30 | 6.11873 | 116.12315 | 5110 ft | 284 kts | 163° |
| 2026-05-07 14:30 | 6.09901 | 116.12434 | 4396 ft | 289 kts | 190° |
| 2026-05-07 14:31 | 6.07996 | 116.11764 | 3675 ft | 293 kts | 206° |
| 2026-05-07 14:31 | 6.06233 | 116.10805 | 3336 ft | 282 kts | 208° |
| 2026-05-07 14:31 | 6.04472 | 116.10112 | 3150 ft | 267 kts | 186° |
| 2026-05-07 14:31 | 6.02618 | 116.10281 | 3051 ft | 270 kts | 159° |
| 2026-05-07 14:32 | 6.01074 | 116.11281 | 3034 ft | 264 kts | 131° |
| 2026-05-07 14:32 | 6.00193 | 116.12878 | 3035 ft | 265 kts | 103° |
| 2026-05-07 14:32 | 6.00165 | 116.14704 | 3030 ft | 264 kts | 75° |
| 2026-05-07 14:32 | 6.01006 | 116.16328 | 3038 ft | 265 kts | 47° |
| 2026-05-07 14:33 | 6.02451 | 116.17466 | 3039 ft | 265 kts | 34° |
| 2026-05-07 14:33 | 6.03991 | 116.18495 | 3040 ft | 265 kts | 34° |
| 2026-05-07 14:33 | 6.05523 | 116.19516 | 3044 ft | 264 kts | 34° |
| 2026-05-07 14:33 | 6.07062 | 116.20535 | 3048 ft | 265 kts | 32° |
| 2026-05-07 14:34 | 6.08784 | 116.21154 | 3051 ft | 266 kts | 5° |
| 2026-05-07 14:34 | 6.10611 | 116.20885 | 3055 ft | 270 kts | 337° |
| 2026-05-07 14:34 | 6.12116 | 116.19779 | 3053 ft | 271 kts | 309° |
| 2026-05-07 14:34 | 6.12938 | 116.18087 | 3052 ft | 273 kts | 281° |
| 2026-05-07 14:35 | 6.12885 | 116.16192 | 3052 ft | 274 kts | 253° |
| 2026-05-07 14:35 | 6.12220 | 116.14398 | 3048 ft | 274 kts | 242° |
| 2026-05-07 14:35 | 6.11050 | 116.12905 | 3045 ft | 273 kts | 219° |
| 2026-05-07 14:35 | 6.09495 | 116.11888 | 2987 ft | 261 kts | 206° |
| 2026-05-07 14:36 | 6.07881 | 116.11130 | 2669 ft | 252 kts | 201° |
| 2026-05-07 14:36 | 6.06287 | 116.10465 | 2354 ft | 243 kts | 202° |
| 2026-05-07 14:36 | 6.04757 | 116.09814 | 2042 ft | 234 kts | 202° |
| 2026-05-07 14:36 | 6.03283 | 116.09185 | 1754 ft | 227 kts | 202° |
| 2026-05-07 14:37 | 6.01853 | 116.08578 | 1456 ft | 220 kts | 202° |
| 2026-05-07 14:37 | 5.99214 | 116.07455 | 974 ft | 185 kts | 202° |
| 2026-05-07 14:37 | 5.98106 | 116.06983 | 739 ft | 164 kts | 202° |
| 2026-05-07 14:38 | 5.97035 | 116.06529 | 531 ft | 167 kts | 202° |
| 2026-05-07 14:38 | 5.95990 | 116.06084 | 313 ft | 156 kts | 201° |
| 2026-05-07 14:38 | 5.95022 | 116.05673 | 121 ft | 151 kts | 201° |
| 2026-05-07 14:38 | 5.94078 | 116.05273 | 28 ft | 135 kts | 203° |
| 2026-05-07 14:39 | 5.93401 | 116.04994 | 28 ft | 88 kts | 202° |
| 2026-05-07 14:39 | 5.92927 | 116.04782 | 28 ft | 55 kts | 196° |
| 2026-05-07 14:39 | 5.92694 | 116.04756 | 28 ft | 25 kts | 176° |
| 2026-05-07 14:39 | 5.92558 | 116.04774 | 28 ft | 17 kts | 176° |
| 2026-05-07 14:40 | 5.92450 | 116.04772 | 28 ft | 14 kts | 178° |
| 2026-05-07 14:40 | 5.92394 | 116.04833 | 29 ft | 11 kts | 101° |
| 2026-05-07 14:40 | 5.92427 | 116.04889 | 28 ft | 9 kts | 31° |
| 2026-05-07 14:40 | 5.92475 | 116.04908 | 11 ft | 5 kts | 29° |
| 2026-05-07 14:41 | 5.92480 | 116.04919 | 47 ft | 0 kts | 80° |
| 2026-05-07 14:41 | 5.92481 | 116.04923 | 38 ft | 2 kts | 84° |
| 2026-05-07 14:41 | 5.92473 | 116.04955 | 28 ft | 9 kts | 112° |
| 2026-05-07 14:41 | 5.92463 | 116.04979 | 28 ft | 0 kts | 110° |
| 2026-05-07 14:42 | 5.92460 | 116.04985 | 28 ft | 0 kts | 110° |